Terminal Aerodrome Forecast
Issued by NWS

Home | Current Version | Previous Version | Graphics & Text | Print | Product List | Glossary On
Versions: 1 2 3 4 5 6 7 8 9 10 11 12 13 14 15 16 17
619
FTUS41 KCLE 281126
TAFFDY
TAF
KFDY 281126Z 2812/2912 13010KT 6SM -RA SCT035 OVC050
      TEMPO 2814/2818 4SM -RA BR BKN015 OVC025
     FM290000 08008KT P6SM SCT015 OVC025
     FM290400 07006KT 6SM BR SCT025 BKN035=

USA.gov is the U.S. government's official web portal to all federal, state and local government web resources and services.